createdAt,value
2018-09-13T00:01:49.963Z,9.93
2018-09-13T00:04:18.377Z,11.43
2018-09-13T00:06:47.122Z,11.65
2018-09-13T00:09:15.675Z,11.00
2018-09-13T00:11:44.182Z,11.03
2018-09-13T00:14:12.760Z,11.35
2018-09-13T00:16:41.202Z,11.15
2018-09-13T00:19:09.561Z,10.38
2018-09-13T00:21:38.018Z,10.95
2018-09-13T00:24:06.463Z,12.20
2018-09-13T00:26:35.058Z,12.15
2018-09-13T00:29:03.478Z,11.90
2018-09-13T00:31:31.889Z,12.03
2018-09-13T00:34:00.275Z,13.10
2018-09-13T00:36:28.679Z,13.13
2018-09-13T00:38:57.249Z,12.35
2018-09-13T00:41:25.728Z,13.90
2018-09-13T00:43:54.494Z,12.88
2018-09-13T00:46:23.107Z,13.30
2018-09-13T00:48:51.593Z,12.83
2018-09-13T00:51:20.037Z,13.62
2018-09-13T00:53:48.463Z,12.60
2018-09-13T00:56:16.855Z,13.22
2018-09-13T00:58:45.350Z,13.80
2018-09-13T01:01:13.718Z,12.43
2018-09-13T01:03:42.247Z,13.70
2018-09-13T01:06:10.679Z,13.72
2018-09-13T01:08:39.088Z,12.10
2018-09-13T01:11:07.783Z,12.93
2018-09-13T01:13:36.262Z,13.20
2018-09-13T01:16:04.750Z,12.58
2018-09-13T01:18:33.220Z,13.20
2018-09-13T01:21:01.816Z,13.00
2018-09-13T01:23:30.326Z,12.50
2018-09-13T01:25:58.870Z,12.43
2018-09-13T01:28:27.385Z,12.68
2018-09-13T01:30:55.794Z,12.37
2018-09-13T01:33:24.192Z,12.80
2018-09-13T01:35:52.566Z,14.85
2018-09-13T01:38:20.976Z,14.80
2018-09-13T01:40:49.371Z,13.70
2018-09-13T01:43:17.809Z,14.28
2018-09-13T01:45:46.283Z,15.90
2018-09-13T01:48:14.669Z,15.08
2018-09-13T01:50:43.078Z,14.80
2018-09-13T01:53:11.560Z,15.38
2018-09-13T01:55:39.987Z,15.68
2018-09-13T01:58:08.555Z,18.55
2018-09-13T02:00:37.006Z,20.62
2018-09-13T02:03:05.573Z,22.75
2018-09-13T02:05:34.038Z,20.02
2018-09-13T02:08:02.510Z,21.80
2018-09-13T02:10:30.906Z,22.17
2018-09-13T02:12:59.447Z,20.77
2018-09-13T02:15:27.873Z,20.37
2018-09-13T02:17:56.350Z,19.53
2018-09-13T02:20:24.852Z,19.70
2018-09-13T02:22:53.315Z,18.75
2018-09-13T02:25:21.715Z,20.12
2018-09-13T02:27:50.166Z,19.67
2018-09-13T02:30:18.762Z,18.27
2018-09-13T02:32:47.167Z,18.37
2018-09-13T02:35:15.751Z,17.90
2018-09-13T02:37:44.197Z,17.27
2018-09-13T02:40:12.606Z,16.10
2018-09-13T02:42:41.044Z,16.48
2018-09-13T02:45:09.631Z,16.40
2018-09-13T02:47:38.084Z,16.42
2018-09-13T02:50:06.466Z,14.73
2018-09-13T02:52:34.985Z,14.47
2018-09-13T02:55:03.762Z,14.10
2018-09-13T02:57:32.158Z,13.43
2018-09-13T03:00:00.677Z,14.65
2018-09-13T03:02:29.103Z,13.47
2018-09-13T03:04:57.673Z,12.80
2018-09-13T03:07:26.146Z,12.45
2018-09-13T03:09:55.518Z,12.70
2018-09-13T03:12:23.915Z,13.62
2018-09-13T03:14:52.330Z,14.80
2018-09-13T03:17:20.690Z,15.13
2018-09-13T03:19:49.090Z,15.78
2018-09-13T03:22:17.528Z,15.23
2018-09-13T03:24:45.939Z,14.87
2018-09-13T03:27:14.291Z,14.10
2018-09-13T03:29:42.819Z,14.90
2018-09-13T03:32:11.233Z,14.85
2018-09-13T03:34:39.627Z,15.40
2018-09-13T03:37:08.093Z,13.98
2018-09-13T03:39:36.610Z,14.90
2018-09-13T03:42:05.093Z,14.33
2018-09-13T03:44:33.538Z,15.25
2018-09-13T03:47:02.099Z,14.30
2018-09-13T03:49:30.522Z,15.15
2018-09-13T03:51:58.950Z,14.10
2018-09-13T03:54:27.392Z,13.93
2018-09-13T03:56:55.910Z,12.95
2018-09-13T03:59:24.479Z,13.25
2018-09-13T04:01:52.901Z,14.13
2018-09-13T04:04:21.352Z,13.90
2018-09-13T04:06:49.718Z,13.50
2018-09-13T04:09:18.396Z,12.13
2018-09-13T04:11:46.784Z,12.15
2018-09-13T04:14:15.262Z,11.40
2018-09-13T04:16:43.683Z,11.60
2018-09-13T04:19:12.191Z,12.33
2018-09-13T04:21:40.585Z,11.20
2018-09-13T04:24:08.954Z,11.70
2018-09-13T04:26:37.393Z,11.65
2018-09-13T04:29:05.864Z,11.63
2018-09-13T04:31:34.375Z,12.18
2018-09-13T04:34:02.882Z,12.60
2018-09-13T04:36:31.293Z,11.88
2018-09-13T04:38:59.714Z,11.90
2018-09-13T04:41:28.094Z,12.28
2018-09-13T04:43:56.583Z,12.37
2018-09-13T04:46:24.996Z,11.93
2018-09-13T04:48:53.495Z,11.90
2018-09-13T04:51:22.084Z,12.13
2018-09-13T04:53:50.607Z,11.97
2018-09-13T04:56:19.795Z,11.83
2018-09-13T04:58:48.191Z,11.08
2018-09-13T05:01:16.767Z,11.80
2018-09-13T05:03:45.207Z,12.50
2018-09-13T05:06:13.678Z,12.28
2018-09-13T05:08:42.302Z,12.70
2018-09-13T05:11:10.785Z,13.40
2018-09-13T05:13:39.245Z,13.00
2018-09-13T05:16:07.728Z,13.20
2018-09-13T05:18:36.147Z,12.58
2018-09-13T05:21:04.708Z,12.75
2018-09-13T05:23:33.126Z,13.08
2018-09-13T05:26:01.520Z,13.60
2018-09-13T05:28:29.973Z,13.88
2018-09-13T05:30:58.527Z,15.25
2018-09-13T05:33:27.056Z,13.90
2018-09-13T05:35:55.553Z,13.58
2018-09-13T05:38:23.970Z,13.75
2018-09-13T05:40:52.347Z,13.85
2018-09-13T05:43:20.839Z,14.80
2018-09-13T05:45:49.703Z,14.85
2018-09-13T05:48:18.304Z,14.73
2018-09-13T05:50:46.699Z,14.45
2018-09-13T05:53:15.195Z,14.55
2018-09-13T05:55:43.755Z,13.78
2018-09-13T05:58:12.181Z,14.10
2018-09-13T06:00:40.614Z,14.18
2018-09-13T06:03:09.077Z,14.95
2018-09-13T06:05:37.574Z,15.23
2018-09-13T06:08:06.234Z,13.80
2018-09-13T06:10:34.627Z,14.65
2018-09-13T06:13:03.010Z,14.17
2018-09-13T06:15:31.506Z,13.55
2018-09-13T06:17:59.925Z,13.67
2018-09-13T06:20:28.470Z,13.32
2018-09-13T06:22:57.009Z,13.60
2018-09-13T06:25:25.406Z,13.28
2018-09-13T06:27:53.927Z,12.58
2018-09-13T06:30:22.340Z,15.38
2018-09-13T06:32:50.682Z,12.55
2018-09-13T06:35:19.057Z,13.72
2018-09-13T06:37:47.547Z,14.68
2018-09-13T06:40:15.930Z,13.48
2018-09-13T06:42:44.320Z,13.97
2018-09-13T06:45:12.818Z,14.30
2018-09-13T06:47:41.330Z,15.05
2018-09-13T06:50:09.854Z,14.80
2018-09-13T06:52:38.287Z,14.68
2018-09-13T06:55:06.951Z,16.23
2018-09-13T06:57:35.383Z,15.35
2018-09-13T07:00:03.970Z,15.37
2018-09-13T07:02:32.432Z,14.87
2018-09-13T07:05:00.782Z,15.58
2018-09-13T07:07:29.463Z,15.53
2018-09-13T07:09:57.920Z,14.93
2018-09-13T07:12:26.286Z,15.65
2018-09-13T07:14:54.777Z,16.20
2018-09-13T07:17:23.202Z,16.20
2018-09-13T07:19:51.682Z,17.30
2018-09-13T07:22:20.157Z,15.77
2018-09-13T07:24:48.555Z,16.30
2018-09-13T07:27:16.967Z,16.37
2018-09-13T07:29:45.454Z,17.23
2018-09-13T07:32:13.846Z,18.07
2018-09-13T07:34:42.312Z,16.73
2018-09-13T07:37:10.834Z,18.02
2018-09-13T07:39:39.329Z,17.35
2018-09-13T07:42:07.786Z,17.82
2018-09-13T07:44:36.378Z,17.10
2018-09-13T07:47:05.042Z,17.12
2018-09-13T07:49:33.497Z,17.52
2018-09-13T07:52:01.975Z,17.15
2018-09-13T07:54:30.374Z,17.05
2018-09-13T07:56:58.779Z,16.93
2018-09-13T07:59:27.480Z,16.75
2018-09-13T08:01:56.047Z,16.00
2018-09-13T08:04:24.477Z,16.17
2018-09-13T08:06:52.865Z,15.45
2018-09-13T08:09:21.315Z,15.80
2018-09-13T08:11:49.900Z,16.35
2018-09-13T08:14:18.246Z,16.15
2018-09-13T08:16:46.676Z,15.55
2018-09-13T08:19:15.123Z,17.30
2018-09-13T08:21:43.591Z,15.80
2018-09-13T08:24:12.150Z,15.98
2018-09-13T08:26:40.542Z,15.65
2018-09-13T08:29:09.037Z,16.30
2018-09-13T08:31:37.584Z,14.68
2018-09-13T08:34:06.268Z,17.32
2018-09-13T08:36:34.726Z,16.70
2018-09-13T08:39:03.437Z,18.50
2018-09-13T08:41:31.860Z,17.12
2018-09-13T08:44:00.382Z,16.85
2018-09-13T08:46:28.822Z,16.27
2018-09-13T08:48:57.215Z,16.90
2018-09-13T08:51:25.778Z,14.23
2018-09-13T08:53:54.194Z,16.10
2018-09-13T08:56:22.807Z,15.50
2018-09-13T08:58:51.187Z,17.53
2018-09-13T09:01:19.867Z,16.42
2018-09-13T09:03:48.261Z,15.08
2018-09-13T09:06:16.798Z,16.02
2018-09-13T09:08:45.326Z,16.10
2018-09-13T09:11:13.880Z,16.33
2018-09-13T09:13:42.475Z,16.35
2018-09-13T09:16:11.047Z,18.70
2018-09-13T09:18:39.685Z,15.43
2018-09-13T09:21:08.053Z,14.50
2018-09-13T09:23:36.448Z,14.50
2018-09-13T09:26:04.831Z,16.60
2018-09-13T09:28:33.321Z,16.55
2018-09-13T09:31:01.694Z,16.40
2018-09-13T09:33:30.185Z,13.38
2018-09-13T09:35:58.635Z,14.38
2018-09-13T09:38:27.158Z,15.30
2018-09-13T09:40:55.626Z,16.02
2018-09-13T09:43:24.058Z,15.98
2018-09-13T09:45:52.546Z,18.35
2018-09-13T09:48:21.070Z,17.25
2018-09-13T09:50:49.533Z,16.60
2018-09-13T09:53:18.032Z,15.50
2018-09-13T09:55:46.461Z,15.10
2018-09-13T09:58:14.866Z,16.65
2018-09-13T10:00:48.790Z,15.70
2018-09-13T10:03:17.275Z,15.10
2018-09-13T10:05:45.693Z,14.53
2018-09-13T10:08:14.166Z,15.18
2018-09-13T10:10:42.601Z,13.88
2018-09-13T10:13:11.085Z,13.70
2018-09-13T10:15:45.056Z,13.60
2018-09-13T10:18:18.926Z,13.90
2018-09-13T10:20:52.912Z,13.45
2018-09-13T10:23:26.739Z,13.70
2018-09-13T10:26:00.451Z,11.65
2018-09-13T10:28:34.427Z,12.20
2018-09-13T10:31:08.047Z,15.30
2018-09-13T10:33:42.194Z,14.93
2018-09-13T10:36:16.002Z,15.27
2018-09-13T10:38:49.705Z,13.97
2018-09-13T10:41:23.509Z,13.10
2018-09-13T10:43:57.268Z,13.60
2018-09-13T10:46:27.442Z,16.55
2018-09-13T10:49:01.336Z,13.88
2018-09-13T10:51:35.158Z,13.55
2018-09-13T10:54:09.081Z,12.90
2018-09-13T10:56:37.598Z,13.85
2018-09-13T10:59:06.158Z,12.47
2018-09-13T11:01:34.571Z,12.45
2018-09-13T11:04:03.074Z,12.28
2018-09-13T11:06:31.486Z,10.78
2018-09-13T11:09:00.004Z,12.95
2018-09-13T11:11:28.429Z,13.62
2018-09-13T11:14:02.131Z,14.65
2018-09-13T11:16:30.773Z,15.83
2018-09-13T11:18:59.584Z,14.35
2018-09-13T11:21:28.070Z,14.85
2018-09-13T11:23:56.687Z,12.23
2018-09-13T11:26:25.076Z,11.48
2018-09-13T11:28:53.538Z,11.35
2018-09-13T11:31:22.064Z,11.78
2018-09-13T11:33:50.486Z,11.90
2018-09-13T11:36:18.973Z,11.22
2018-09-13T11:38:47.463Z,10.18
2018-09-13T11:41:16.008Z,10.28
2018-09-13T11:43:44.605Z,10.35
2018-09-13T11:46:13.018Z,11.50
2018-09-13T11:48:41.471Z,9.80
2018-09-13T11:51:09.962Z,11.68
2018-09-13T11:53:38.408Z,12.88
2018-09-13T11:56:06.884Z,11.97
2018-09-13T11:58:35.282Z,10.72
2018-09-13T12:01:03.827Z,10.20
2018-09-13T12:03:32.162Z,8.30
2018-09-13T12:06:00.563Z,7.60
2018-09-13T12:08:28.980Z,9.03
2018-09-13T12:10:57.590Z,8.95
2018-09-13T12:13:26.114Z,9.08
2018-09-13T12:15:54.669Z,8.00
2018-09-13T12:18:23.079Z,8.00
2018-09-13T12:20:51.560Z,8.00
2018-09-13T12:23:20.047Z,9.48
2018-09-13T12:25:48.531Z,10.13
2018-09-13T12:28:16.953Z,9.98
2018-09-13T12:30:45.555Z,9.13
2018-09-13T12:33:14.075Z,9.88
2018-09-13T12:35:42.650Z,8.63
2018-09-13T12:38:11.114Z,9.80
2018-09-13T12:40:39.603Z,8.88
2018-09-13T12:43:08.058Z,8.28
2018-09-13T12:45:36.548Z,9.05
2018-09-13T12:48:05.013Z,8.10
2018-09-13T12:50:33.378Z,8.40
2018-09-13T12:53:01.908Z,8.80
2018-09-13T12:55:35.641Z,9.10
2018-09-13T12:58:04.125Z,8.40
2018-09-13T13:00:32.652Z,10.18
2018-09-13T13:03:01.264Z,8.90
2018-09-13T13:05:29.784Z,9.00
2018-09-13T13:07:58.548Z,8.55
2018-09-13T13:10:29.988Z,8.15
2018-09-13T13:12:58.495Z,8.25
2018-09-13T13:15:26.958Z,8.23
2018-09-13T13:17:55.464Z,8.95
2018-09-13T13:20:23.987Z,7.30
2018-09-13T13:22:52.474Z,6.78
2018-09-13T13:25:21.034Z,7.70
2018-09-13T13:27:49.621Z,7.62
2018-09-13T13:30:18.005Z,6.50
2018-09-13T13:32:46.399Z,6.33
2018-09-13T13:35:14.915Z,7.10
2018-09-13T13:37:43.339Z,7.60
2018-09-13T13:40:18.798Z,7.20
2018-09-13T13:42:47.241Z,7.83
2018-09-13T13:45:15.630Z,8.15
2018-09-13T13:47:44.208Z,8.10
2018-09-13T13:50:12.690Z,7.20
2018-09-13T13:52:41.529Z,7.00
2018-09-13T13:55:10.177Z,7.17
2018-09-13T13:57:38.586Z,7.63
2018-09-13T14:00:07.358Z,7.42
2018-09-13T14:02:35.918Z,7.25
2018-09-13T14:05:04.635Z,6.15
2018-09-13T14:07:33.056Z,5.67
2018-09-13T14:10:01.580Z,6.30
2018-09-13T14:14:57.759Z,4.40
2018-09-13T14:17:26.181Z,5.30
2018-09-13T14:19:54.714Z,6.10
2018-09-13T14:22:23.125Z,5.60
2018-09-13T14:24:51.586Z,4.93
2018-09-13T14:27:20.024Z,5.83
2018-09-13T14:29:48.502Z,7.23
2018-09-13T14:32:16.990Z,6.00
2018-09-13T14:34:45.511Z,5.40
2018-09-13T14:37:14.033Z,7.27
2018-09-13T14:39:42.587Z,6.07
2018-09-13T14:42:11.173Z,6.90
2018-09-13T14:44:39.554Z,6.10
2018-09-13T14:47:08.108Z,7.10
2018-09-13T14:49:36.548Z,7.00
2018-09-13T14:52:05.058Z,7.40
2018-09-13T14:54:33.525Z,7.03
2018-09-13T14:57:01.933Z,8.00
2018-09-13T14:59:30.551Z,6.80
2018-09-13T15:01:58.996Z,7.07
2018-09-13T15:04:27.534Z,6.73
2018-09-13T15:06:56.292Z,7.10
2018-09-13T15:09:24.794Z,6.90
2018-09-13T15:11:53.287Z,7.07
2018-09-13T15:14:21.704Z,8.13
2018-09-13T15:16:50.258Z,9.17
2018-09-13T15:19:18.731Z,8.43
2018-09-13T15:21:47.389Z,8.73
2018-09-13T15:24:15.901Z,9.73
2018-09-13T15:26:44.418Z,10.13
2018-09-13T15:29:12.947Z,8.30
2018-09-13T15:31:41.410Z,10.63
2018-09-13T15:34:09.859Z,8.60
2018-09-13T15:36:38.334Z,7.90
2018-09-13T15:39:09.827Z,9.80
2018-09-13T15:41:38.279Z,8.03
2018-09-13T15:44:07.021Z,10.43
2018-09-13T15:46:35.430Z,8.03
2018-09-13T15:49:04.162Z,9.97
2018-09-13T15:51:32.581Z,8.70
2018-09-13T15:54:01.114Z,9.07
2018-09-13T15:56:29.500Z,8.43
2018-09-13T15:58:58.276Z,8.63
2018-09-13T16:01:26.746Z,9.30
2018-09-13T16:03:55.236Z,9.60
2018-09-13T16:06:23.777Z,9.47
2018-09-13T16:08:52.272Z,10.63
2018-09-13T16:11:20.987Z,8.50
2018-09-13T16:13:49.442Z,7.00
2018-09-13T16:16:17.916Z,6.60
2018-09-13T16:18:46.482Z,6.97
2018-09-13T16:21:14.869Z,6.90
2018-09-13T16:23:43.414Z,6.23
2018-09-13T16:26:12.050Z,8.33
2018-09-13T16:28:40.431Z,9.40
2018-09-13T16:31:08.968Z,8.60
2018-09-13T16:33:37.339Z,8.83
2018-09-13T16:36:06.654Z,7.70
2018-09-13T16:38:40.680Z,8.93
2018-09-13T16:41:14.460Z,9.23
2018-09-13T16:43:48.364Z,7.50
2018-09-13T16:46:22.264Z,9.10
2018-09-13T16:48:50.908Z,6.30
2018-09-13T16:51:19.404Z,5.93
2018-09-13T16:53:47.963Z,6.53
2018-09-13T16:56:16.421Z,5.83
2018-09-13T16:58:44.852Z,6.63
2018-09-13T17:01:13.572Z,8.00
2018-09-13T17:03:42.091Z,8.87
2018-09-13T17:06:10.585Z,6.40
2018-09-13T17:08:39.047Z,6.97
2018-09-13T17:11:07.510Z,8.00
2018-09-13T17:13:36.049Z,7.27
2018-09-13T17:16:04.767Z,7.47
2018-09-13T17:18:33.864Z,7.70
2018-09-13T17:21:03.256Z,11.50
2018-09-13T17:23:32.655Z,7.45
2018-09-13T17:26:02.897Z,7.75
2018-09-13T17:28:31.362Z,7.95
2018-09-13T17:30:59.874Z,8.00
2018-09-13T17:33:28.449Z,6.97
2018-09-13T17:35:57.723Z,8.68
2018-09-13T17:38:26.152Z,5.15
2018-09-13T17:40:54.565Z,4.50
2018-09-13T17:43:23.051Z,4.80
2018-09-13T17:45:53.168Z,4.72
2018-09-13T17:48:21.624Z,4.10
2018-09-13T17:50:50.125Z,4.20
2018-09-13T17:53:18.799Z,4.42
2018-09-13T17:55:47.349Z,4.80
2018-09-13T17:58:15.935Z,5.28
2018-09-13T18:00:44.375Z,4.70
2018-09-13T18:03:13.236Z,4.70
2018-09-13T18:05:41.807Z,5.15
2018-09-13T18:08:10.471Z,5.50
2018-09-13T18:10:39.166Z,5.30
2018-09-13T18:13:07.698Z,5.40
2018-09-13T18:15:36.207Z,5.60
2018-09-13T18:18:04.836Z,5.60
2018-09-13T18:20:33.383Z,4.95
2018-09-13T18:23:02.710Z,5.10
2018-09-13T18:25:34.248Z,5.65
2018-09-13T18:28:02.737Z,5.70
2018-09-13T18:30:31.277Z,5.83
2018-09-13T18:32:59.817Z,5.43
2018-09-13T18:35:28.272Z,5.70
2018-09-13T18:37:56.775Z,5.67
2018-09-13T18:40:25.263Z,5.65
2018-09-13T18:42:53.959Z,5.90
2018-09-13T18:45:22.510Z,5.62
2018-09-13T18:47:50.938Z,5.97
2018-09-13T18:50:19.399Z,5.90
2018-09-13T18:52:48.103Z,5.97
2018-09-13T18:55:16.744Z,5.60
2018-09-13T18:57:45.228Z,6.70
2018-09-13T19:00:13.791Z,7.07
2018-09-13T19:02:42.284Z,5.30
2018-09-13T19:05:10.906Z,6.63
2018-09-13T19:07:39.951Z,7.07
2018-09-13T19:10:08.526Z,6.50
2018-09-13T19:12:37.128Z,6.73
2018-09-13T19:15:06.064Z,6.50
2018-09-13T19:17:34.626Z,6.17
2018-09-13T19:20:03.400Z,8.00
2018-09-13T19:22:31.986Z,7.23
2018-09-13T19:25:00.584Z,6.80
2018-09-13T19:27:29.075Z,7.37
2018-09-13T19:29:57.645Z,7.37
2018-09-13T19:32:26.230Z,7.53
2018-09-13T19:34:54.741Z,7.40
2018-09-13T19:37:23.234Z,8.40
2018-09-13T19:39:51.700Z,7.23
2018-09-13T19:42:20.290Z,7.37
2018-09-13T19:44:48.749Z,7.60
2018-09-13T19:47:17.219Z,8.77
2018-09-13T19:49:45.751Z,8.50
2018-09-13T19:52:14.342Z,7.47
2018-09-13T19:54:42.743Z,8.90
2018-09-13T19:57:11.265Z,8.50
2018-09-13T19:59:39.674Z,8.30
2018-09-13T20:02:08.382Z,7.50
2018-09-13T20:04:36.961Z,7.93
2018-09-13T20:07:05.889Z,6.77
2018-09-13T20:09:34.496Z,7.60
2018-09-13T20:12:02.914Z,8.53
2018-09-13T20:14:31.396Z,10.58
2018-09-13T20:16:59.873Z,12.15
2018-09-13T20:19:28.359Z,11.93
2018-09-13T20:21:56.929Z,12.60
2018-09-13T20:24:25.394Z,10.80
2018-09-13T20:26:53.816Z,12.30
2018-09-13T20:29:22.288Z,13.58
2018-09-13T20:31:50.771Z,14.53
2018-09-13T20:34:19.237Z,13.58
2018-09-13T20:36:47.709Z,12.55
2018-09-13T20:39:16.158Z,13.60
2018-09-13T20:41:44.700Z,13.90
2018-09-13T20:44:13.130Z,13.28
2018-09-13T20:46:41.580Z,13.58
2018-09-13T20:49:10.182Z,13.28
2018-09-13T20:51:38.629Z,12.70
2018-09-13T20:54:07.067Z,12.60
2018-09-13T20:56:35.565Z,12.05
2018-09-13T20:59:04.032Z,11.40
2018-09-13T21:01:32.449Z,11.18
2018-09-13T21:04:01.239Z,11.77
2018-09-13T21:06:29.690Z,12.10
2018-09-13T21:08:58.252Z,11.20
2018-09-13T21:11:26.714Z,11.17
2018-09-13T21:13:55.220Z,10.70
2018-09-13T21:16:23.794Z,10.48
2018-09-13T21:18:52.388Z,10.48
2018-09-13T21:21:20.809Z,10.68
2018-09-13T21:23:49.335Z,10.08
2018-09-13T21:26:17.824Z,9.93
2018-09-13T21:28:46.507Z,10.30
2018-09-13T21:31:15.068Z,9.48
2018-09-13T21:33:43.586Z,10.35
2018-09-13T21:36:12.006Z,10.60
2018-09-13T21:38:40.439Z,9.90
2018-09-13T21:41:09.089Z,10.63
2018-09-13T21:43:37.474Z,9.53
2018-09-13T21:46:05.949Z,9.23
2018-09-13T21:48:34.438Z,9.33
2018-09-13T21:51:02.928Z,10.23
2018-09-13T21:53:31.611Z,10.75
2018-09-13T21:56:00.227Z,9.88
2018-09-13T21:58:28.666Z,10.80
2018-09-13T22:00:57.201Z,10.45
2018-09-13T22:03:25.716Z,10.72
2018-09-13T22:05:54.273Z,10.00
2018-09-13T22:08:22.751Z,10.35
2018-09-13T22:10:51.384Z,10.88
2018-09-13T22:13:19.922Z,10.83
2018-09-13T22:15:48.402Z,9.88
2018-09-13T22:18:16.935Z,10.88
2018-09-13T22:20:45.347Z,10.85
2018-09-13T22:23:13.773Z,10.20
2018-09-13T22:25:42.263Z,10.88
2018-09-13T22:28:10.827Z,10.28
2018-09-13T22:30:39.290Z,12.55
2018-09-13T22:33:07.887Z,11.05
2018-09-13T22:35:36.307Z,10.60
2018-09-13T22:38:04.726Z,10.63
2018-09-13T22:40:33.264Z,10.13
2018-09-13T22:43:01.690Z,11.12
2018-09-13T22:45:30.217Z,10.82
2018-09-13T22:47:58.662Z,10.60
2018-09-13T22:50:27.103Z,11.20
2018-09-13T22:52:55.495Z,10.82
2018-09-13T22:55:24.008Z,12.07
2018-09-13T22:57:52.375Z,12.07
2018-09-13T23:00:20.837Z,10.98
2018-09-13T23:02:50.824Z,11.40
2018-09-13T23:05:19.919Z,11.28
2018-09-13T23:07:48.358Z,11.03
2018-09-13T23:10:17.184Z,11.90
2018-09-13T23:12:45.701Z,11.22
2018-09-13T23:15:14.119Z,11.75
2018-09-13T23:17:42.681Z,11.57
2018-09-13T23:20:11.168Z,11.95
2018-09-13T23:22:39.523Z,11.88
2018-09-13T23:25:08.153Z,12.15
2018-09-13T23:27:36.511Z,12.23
2018-09-13T23:30:05.757Z,13.00
2018-09-13T23:32:34.173Z,12.37
2018-09-13T23:35:02.648Z,12.80
2018-09-13T23:37:31.045Z,12.20
2018-09-13T23:39:59.719Z,12.25
2018-09-13T23:42:27.990Z,12.43
2018-09-13T23:44:56.486Z,12.80
2018-09-13T23:47:24.878Z,13.40
2018-09-13T23:49:53.309Z,12.23
2018-09-13T23:52:21.742Z,13.83
2018-09-13T23:54:50.198Z,14.80
2018-09-13T23:57:18.606Z,15.00
2018-09-13T23:59:47.094Z,16.25
